createdAt,value
2022-09-30T00:01:04.267Z,5.82
2022-09-30T00:06:08.768Z,6.88
2022-09-30T00:11:17.794Z,6.25
2022-09-30T00:16:21.567Z,10.50
2022-09-30T00:21:24.642Z,4.78
2022-09-30T00:26:26.935Z,5.18
2022-09-30T00:31:32.682Z,10.32
2022-09-30T00:36:38.932Z,22.30
2022-09-30T00:41:41.327Z,7.13
2022-09-30T00:46:45.036Z,12.38
2022-09-30T00:51:54.683Z,11.15
2022-09-30T00:57:00.754Z,11.77
2022-09-30T01:02:02.895Z,9.63
2022-09-30T01:07:08.708Z,13.13
2022-09-30T01:12:18.910Z,6.13
2022-09-30T01:17:51.848Z,5.07
2022-09-30T01:23:15.136Z,5.32
2022-09-30T01:28:38.108Z,3.75
2022-09-30T01:34:12.077Z,5.30
2022-09-30T01:39:42.146Z,4.47
2022-09-30T01:44:55.697Z,7.07
2022-09-30T01:50:09.542Z,4.75
2022-09-30T01:55:27.346Z,4.75
2022-09-30T02:00:35.108Z,2.72
2022-09-30T02:05:43.954Z,5.10
2022-09-30T02:10:53.147Z,4.53
2022-09-30T02:16:00.675Z,3.60
2022-09-30T02:21:04.882Z,4.28
2022-09-30T02:26:10.432Z,5.88
2022-09-30T02:31:15.285Z,6.53
2022-09-30T02:36:32.104Z,3.45
2022-09-30T02:41:47.828Z,5.03
2022-09-30T02:47:10.183Z,3.35
2022-09-30T02:52:24.974Z,5.13
2022-09-30T02:57:44.200Z,4.80
2022-09-30T03:02:46.066Z,3.72
2022-09-30T03:07:47.862Z,6.60
2022-09-30T03:13:28.660Z,4.68
2022-09-30T03:19:09.281Z,6.28
2022-09-30T03:24:32.819Z,5.90
2022-09-30T03:29:42.254Z,5.28
2022-09-30T03:34:58.022Z,10.13
2022-09-30T03:40:11.902Z,4.30
2022-09-30T03:45:30.532Z,5.20
2022-09-30T03:50:34.866Z,9.05
2022-09-30T03:55:49.385Z,7.10
2022-09-30T04:00:54.570Z,5.47
2022-09-30T04:05:56.482Z,4.97
2022-09-30T04:10:58.477Z,5.60
2022-09-30T04:16:00.444Z,3.72
2022-09-30T04:21:12.547Z,5.53
2022-09-30T04:26:15.983Z,5.82
2022-09-30T04:31:19.644Z,9.55
2022-09-30T04:36:21.593Z,6.22
2022-09-30T04:41:23.718Z,5.97
2022-09-30T04:46:25.937Z,8.23
2022-09-30T04:51:27.807Z,7.07
2022-09-30T04:56:29.932Z,5.38
2022-09-30T05:01:31.856Z,5.88
2022-09-30T05:06:34.071Z,4.45
2022-09-30T05:11:38.233Z,4.28
2022-09-30T05:16:40.095Z,13.82
2022-09-30T05:21:44.970Z,5.00
2022-09-30T05:26:46.925Z,9.73
2022-09-30T05:31:48.829Z,5.28
2022-09-30T05:36:50.862Z,16.67
2022-09-30T05:41:52.763Z,4.82
2022-09-30T05:46:54.755Z,4.38
2022-09-30T05:51:56.791Z,7.07
2022-09-30T05:56:58.957Z,11.95
2022-09-30T06:02:01.611Z,12.27
2022-09-30T06:07:08.237Z,6.85
2022-09-30T06:12:12.383Z,15.23
2022-09-30T06:17:14.287Z,6.75
2022-09-30T06:22:18.251Z,9.18
2022-09-30T06:27:20.266Z,10.32
2022-09-30T06:32:22.147Z,13.38
2022-09-30T06:37:25.445Z,10.98
2022-09-30T06:42:27.425Z,14.02
2022-09-30T06:47:29.268Z,13.85
2022-09-30T06:52:31.136Z,21.58
2022-09-30T06:57:33.272Z,20.15
2022-09-30T07:02:36.185Z,19.33
2022-09-30T07:07:38.252Z,13.52
2022-09-30T07:12:41.200Z,11.55
2022-09-30T07:17:44.248Z,15.82
2022-09-30T07:22:46.545Z,7.72
2022-09-30T07:27:49.012Z,9.65
2022-09-30T07:32:50.946Z,6.05
2022-09-30T07:37:52.859Z,5.80
2022-09-30T07:42:54.983Z,9.25
2022-09-30T07:47:59.863Z,9.07
2022-09-30T07:53:01.812Z,6.45
2022-09-30T07:58:06.329Z,9.90
2022-09-30T08:03:08.382Z,5.78
2022-09-30T08:08:11.785Z,6.47
2022-09-30T08:13:14.051Z,4.88
2022-09-30T08:18:16.128Z,11.30
2022-09-30T08:23:17.986Z,5.55
2022-09-30T08:28:20.046Z,9.38
2022-09-30T08:33:21.823Z,6.57
2022-09-30T08:38:23.636Z,6.55
2022-09-30T08:43:46.710Z,5.85
2022-09-30T08:49:03.529Z,4.68
2022-09-30T08:54:10.932Z,5.80
2022-09-30T08:59:26.932Z,5.43
2022-09-30T09:04:29.115Z,3.95
2022-09-30T09:10:00.348Z,4.85
2022-09-30T09:15:26.874Z,3.40
2022-09-30T09:20:41.462Z,2.83
2022-09-30T09:25:46.468Z,8.07
2022-09-30T09:30:53.689Z,3.72
2022-09-30T09:36:13.604Z,2.65
2022-09-30T09:41:44.291Z,3.00
2022-09-30T09:47:05.815Z,4.13
2022-09-30T09:52:13.487Z,2.95
2022-09-30T09:57:25.019Z,4.18
2022-09-30T10:02:30.280Z,4.03
2022-09-30T10:07:34.470Z,5.57
2022-09-30T10:12:36.598Z,6.57
2022-09-30T10:17:38.881Z,8.18
2022-09-30T10:22:41.562Z,3.42
2022-09-30T10:27:57.262Z,6.40
2022-09-30T10:33:02.382Z,4.80
2022-09-30T10:38:04.314Z,5.07
2022-09-30T10:43:06.213Z,3.65
2022-09-30T10:48:18.096Z,5.38
2022-09-30T10:53:27.198Z,3.05
2022-09-30T10:58:51.693Z,3.60
2022-09-30T11:04:05.988Z,2.95
2022-09-30T11:09:33.958Z,6.45
2022-09-30T11:14:42.417Z,5.10
2022-09-30T11:19:44.185Z,11.50
2022-09-30T11:24:50.418Z,3.50
2022-09-30T11:30:16.920Z,4.97
2022-09-30T11:35:37.445Z,2.88
2022-09-30T11:40:51.409Z,4.10
2022-09-30T11:46:02.289Z,2.70
2022-09-30T11:51:19.905Z,4.63
2022-09-30T11:56:59.417Z,2.70
2022-09-30T12:02:04.991Z,5.65
2022-09-30T12:07:15.128Z,1.98
2022-09-30T12:12:19.045Z,2.40
2022-09-30T12:17:34.012Z,3.40
2022-09-30T12:22:41.116Z,2.38
2022-09-30T12:27:49.603Z,3.90
2022-09-30T12:33:12.511Z,3.88
2022-09-30T12:38:17.754Z,3.78
2022-09-30T12:43:55.206Z,2.33
2022-09-30T12:49:06.007Z,1.67
2022-09-30T12:54:16.381Z,1.98
2022-09-30T12:59:30.368Z,2.67
2022-09-30T13:04:42.994Z,5.47
2022-09-30T13:10:27.804Z,8.55
2022-09-30T13:15:32.806Z,3.05
2022-09-30T13:20:56.897Z,2.65
2022-09-30T13:25:58.932Z,2.70
2022-09-30T13:31:32.376Z,2.22
2022-09-30T13:36:52.490Z,2.45
2022-09-30T13:42:07.247Z,2.13
2022-09-30T13:47:26.762Z,3.80
2022-09-30T13:52:33.213Z,3.22
2022-09-30T13:57:45.510Z,2.17
2022-09-30T14:03:11.152Z,1.35
2022-09-30T14:08:16.066Z,2.55
2022-09-30T14:14:01.172Z,2.05
2022-09-30T14:19:30.345Z,2.33
2022-09-30T14:24:38.027Z,3.38
2022-09-30T14:34:53.755Z,3.72
2022-09-30T14:39:56.377Z,2.58
2022-09-30T14:45:06.165Z,4.45
2022-09-30T14:50:18.130Z,3.35
2022-09-30T14:55:27.034Z,2.40
2022-09-30T15:00:31.541Z,3.20
2022-09-30T15:05:36.358Z,2.45
2022-09-30T15:10:38.394Z,3.42
2022-09-30T15:15:40.788Z,2.05
2022-09-30T15:20:43.562Z,4.68
2022-09-30T15:25:45.741Z,1.70
2022-09-30T15:30:47.672Z,2.70
2022-09-30T15:35:50.451Z,2.28
2022-09-30T15:40:59.733Z,1.52
2022-09-30T15:46:19.727Z,3.75
2022-09-30T15:51:25.773Z,5.10
2022-09-30T15:56:28.290Z,7.05
2022-09-30T16:01:40.079Z,3.22
2022-09-30T16:06:42.251Z,2.33
2022-09-30T16:11:46.893Z,2.00
2022-09-30T16:16:54.731Z,4.32
2022-09-30T16:21:58.033Z,3.88
2022-09-30T16:27:20.156Z,2.53
2022-09-30T16:32:22.867Z,2.13
2022-09-30T16:37:24.803Z,2.50
2022-09-30T16:42:27.346Z,2.67
2022-09-30T16:47:29.158Z,3.08
2022-09-30T16:52:31.468Z,5.80
2022-09-30T16:57:33.466Z,5.65
2022-09-30T17:02:35.370Z,3.70
2022-09-30T17:07:37.204Z,4.53
2022-09-30T17:12:39.066Z,3.75
2022-09-30T17:17:40.932Z,5.40
2022-09-30T17:22:43.222Z,6.47
2022-09-30T17:27:50.071Z,7.00
2022-09-30T17:32:53.041Z,6.73
2022-09-30T17:37:56.364Z,8.77
2022-09-30T17:43:07.370Z,4.82
2022-09-30T17:48:10.805Z,3.95
2022-09-30T17:53:16.956Z,3.85
2022-09-30T17:58:19.361Z,4.82
2022-09-30T18:03:21.787Z,5.70
2022-09-30T18:08:25.136Z,6.82
2022-09-30T18:13:27.872Z,4.32
2022-09-30T18:18:29.862Z,12.48
2022-09-30T18:23:31.631Z,12.07
2022-09-30T18:28:33.558Z,8.40
2022-09-30T18:33:35.819Z,6.53
2022-09-30T18:38:37.669Z,7.25
2022-09-30T18:43:40.062Z,6.53
2022-09-30T18:48:41.910Z,4.35
2022-09-30T18:53:44.844Z,3.92
2022-09-30T18:58:49.145Z,3.03
2022-09-30T19:03:52.684Z,8.48
2022-09-30T19:08:54.442Z,3.70
2022-09-30T19:14:02.499Z,5.00
2022-09-30T19:19:10.478Z,3.03
2022-09-30T19:24:12.523Z,4.07
2022-09-30T19:29:14.304Z,2.10
2022-09-30T19:34:27.102Z,3.33
2022-09-30T19:39:42.475Z,4.22
2022-09-30T19:44:47.487Z,2.78
2022-09-30T19:49:49.352Z,4.10
2022-09-30T19:54:51.911Z,4.78
2022-09-30T19:59:53.945Z,3.70
2022-09-30T20:04:55.841Z,4.70
2022-09-30T20:09:57.743Z,2.15
2022-09-30T20:15:17.966Z,3.03
2022-09-30T20:20:34.793Z,2.17
2022-09-30T20:25:36.650Z,3.25
2022-09-30T20:30:45.650Z,4.63
2022-09-30T20:35:48.278Z,4.82
2022-09-30T20:40:57.374Z,2.38
2022-09-30T20:46:01.836Z,2.80
2022-09-30T20:51:08.523Z,3.70
2022-09-30T20:56:12.970Z,7.68
2022-09-30T21:01:20.126Z,3.17
2022-09-30T21:06:25.833Z,3.05
2022-09-30T21:11:27.608Z,5.72
2022-09-30T21:16:29.798Z,2.17
2022-09-30T21:21:32.115Z,2.05
2022-09-30T21:26:35.702Z,2.60
2022-09-30T21:31:38.096Z,2.22
2022-09-30T21:36:40.582Z,2.35
2022-09-30T21:41:43.056Z,2.53
2022-09-30T21:46:48.877Z,3.25
2022-09-30T21:51:53.708Z,2.83
2022-09-30T21:56:55.465Z,2.13
2022-09-30T22:01:57.388Z,3.03
2022-09-30T22:06:59.266Z,7.40
2022-09-30T22:12:08.742Z,2.88
2022-09-30T22:17:10.550Z,2.42
2022-09-30T22:22:12.383Z,3.30
2022-09-30T22:27:14.744Z,4.03
2022-09-30T22:32:16.754Z,2.70
2022-09-30T22:37:36.844Z,2.35
2022-09-30T22:42:38.784Z,2.03
2022-09-30T22:47:41.603Z,3.58
2022-09-30T22:52:43.426Z,2.38
2022-09-30T22:57:45.191Z,3.38
2022-09-30T23:02:46.909Z,2.60
2022-09-30T23:07:48.609Z,2.78
2022-09-30T23:12:52.206Z,2.95
2022-09-30T23:17:53.982Z,2.67
2022-09-30T23:22:55.932Z,5.97
2022-09-30T23:27:57.769Z,3.38
2022-09-30T23:32:59.539Z,2.63
2022-09-30T23:38:01.330Z,5.00
2022-09-30T23:43:03.060Z,3.80
2022-09-30T23:48:04.831Z,3.47
2022-09-30T23:53:06.633Z,3.40
2022-09-30T23:58:08.802Z,3.97
